Anchorage/Elmendorf AFB, Alaska
Current Conditions -  °F | °C
As of 5:58 PM on Wednesday 22 Oct 2014 (Local Time) from PAED Reporting Station
Clear Clear  
Wind Chill: 34°   Ceiling: Unl
Heat Index: 38°   Visibility: 10mi
Dew Point: 26°   Wind: 5mph
Humidity: 64%   Direction: 240°WSW
Pressure: 29.38"   Gusts: NA
Location:  61.25°N, 149.79°W
Report Text: PAED 230158Z AUTO 24004KT 10SM CLR 03/M03 A2938 RMK AO2 SLP947 T00311031 $
Loading
Personal Weather Stations






























Interactive Weather Map
Tropical Storm Tracking
New forecast layout! Learn more

10-Day Weather Forecast

Advertisements
Track Severe Weather on mobile